首页
METAR-TAF:

METAR-TAF

机场 :

伊拉克利翁尼科斯·卡赞察基斯国际机场

伊拉克利翁, 希腊

纬度: 35-20N, 经度: 025-11E, 海拔: 37米

当前天气观测

该预报发布于34分钟前的16:20 UTC
风速9节,风向西北
温度 24°C
湿度 83%
气压 1017 hPa
能见度10公里或以上
少量云层高于2000英尺

METAR: LGIR 231620Z 32009KT 9999 FEW020 24/21 Q1017 NOSIG

时间: 19:54 (16:54 UTC)

预报

该预报发布于5小时和54分钟前的11:00 UTC
预报有效从23日的 12点(UTC)到 24日的 12点(UTC)
风速10节,风向西北
能见度10公里或以上
散云层高于2500英尺
成为
从 23日的 18点(UTC)到 23日的 20点(UTC)
风速10节,风向

TAF: LGIR 231100Z 2312/2412 31010KT 9999 SCT025 BECMG 2318/2320 17010KT

超过4000个机场的气象观测和天气预报(METAR&TAF报告)。

可查询的气象台以黄色和红色小点在地图上表示。

将鼠标移到小点上方,可查看气象台名称。

然后点击查看天气观测和预报。

如需切换地图:点击带黑十字的绿色按钮放大地图;点击带横线的绿色按钮缩小地图;或者点击绿色箭头查看邻近地区的地图。


METAR-TAF: